עמוד ראשי
METAR-TAF:

METAR-TAF

שדות תעופה :

Kaunakakai, הוואי, ארצות הברית

קו רוחב: 21-09N, קו אורך: 157-06W, גובה: 138מטר

תצפית מזג אוויר נוכחית

הדו"ח נערך לפני 25 שעות ו 18דקות, בשעה 08:54 UTC
רוח 15קשר מכיוון מזרח עם משבים עד 22קשר
טמפרטורת 23 צלסיוס
לחות 83%
לחץ 1019 hPa
ראות: 16.1קילומטר
מעט עננים בגובה 2000רגל

METAR: PHMK 230854Z AUTO 08015G22KT 10SM FEW020 23/20 A3009 RMK AO2 SLP192 T02330200 51012 TSNO

זמן: 00:12 (10:12 UTC)

תחזית

הדו"ח נערך לפני 4 שעות ו 52דקות, בשעה 05:20 UTC
תחזית בתוקף מ 24 ב 06 UTC עד 25 ב 06 UTC
רוח 15קשר מכיוון מזרח עם משבים עד 22קשר
ראות: 10קילומטר
מעט עננים בגובה 2000רגל
מ 24 ב 2000UTC
רוח 15קשר מכיוון מזרח/צפון-מזרח עם משבים עד 25קשר
ראות: 10קילומטר
עננים פזורים בגובה 2500רגל
עננים פזורים בגובה 4500רגל

TAF: PHMK 240520Z 2406/2506 08015G22KT P6SM FEW020 FM242000 06015G25KT P6SM SCT025 SCT045

תצפיות ותחזיות מזג אוויר לגבי יותר מ- 4,000 שדות תעופה ברחבי העולם. דוחות METAR ו- TAF.

התחנות הזמינות מסומנות בנקודות צהובות ואדומות על גבי המפה.

העבר את העכבר לנקודה הצבעונית על מנת לראות את שם התחנה.

לאחר מכן, לחץ כדי לראות את תוכן ואת תחזיות מזג האוויר.

כדי לשנות את המפה: לחץ על הכפתורים הירוקים עם הפלוס השחור כדי להתקרב; על הכפתור הירוק עם המקף כדי להתרחק; או בחיצים הירוקים למפות סמוכות.


METAR-TAF: